createdAt,value
2022-08-26T00:00:15.829Z,990.39
2022-08-26T00:01:16.625Z,990.39
2022-08-26T00:02:15.689Z,990.38
2022-08-26T00:03:15.566Z,990.38
2022-08-26T00:04:15.733Z,990.34
2022-08-26T00:05:15.727Z,990.33
2022-08-26T00:06:15.584Z,990.30
2022-08-26T00:07:15.685Z,990.31
2022-08-26T00:08:15.542Z,990.30
2022-08-26T00:09:16.048Z,990.32
2022-08-26T00:10:15.527Z,990.31
2022-08-26T00:11:15.514Z,990.33
2022-08-26T00:12:16.616Z,990.29
2022-08-26T00:13:15.411Z,990.29
2022-08-26T00:14:15.542Z,990.28
2022-08-26T00:15:15.518Z,990.31
2022-08-26T00:16:15.442Z,990.29
2022-08-26T00:17:15.387Z,990.30
2022-08-26T00:18:21.738Z,990.23
2022-08-26T00:19:15.455Z,990.29
2022-08-26T00:20:15.571Z,990.30
2022-08-26T00:21:15.623Z,990.28
2022-08-26T00:22:21.506Z,990.21
2022-08-26T00:23:15.419Z,990.31
2022-08-26T00:24:15.427Z,990.33
2022-08-26T00:25:15.281Z,990.32
2022-08-26T00:26:15.271Z,990.37
2022-08-26T00:27:15.360Z,990.28
2022-08-26T00:28:15.348Z,990.30
2022-08-26T00:29:15.471Z,990.33
2022-08-26T00:30:15.223Z,990.31
2022-08-26T00:31:15.345Z,990.30
2022-08-26T00:32:15.514Z,990.28
2022-08-26T00:33:15.892Z,990.21
2022-08-26T00:34:15.572Z,990.27
2022-08-26T00:35:15.182Z,990.21
2022-08-26T00:36:20.077Z,990.28
2022-08-26T00:37:16.393Z,990.25
2022-08-26T00:38:16.228Z,990.29
2022-08-26T00:39:15.245Z,990.27
2022-08-26T00:40:15.165Z,990.28
2022-08-26T00:41:15.167Z,990.21
2022-08-26T00:42:15.112Z,990.24
2022-08-26T00:43:15.107Z,990.24
2022-08-26T00:44:15.174Z,990.22
2022-08-26T00:45:15.056Z,990.22
2022-08-26T00:46:15.256Z,990.19
2022-08-26T00:47:16.104Z,990.22
2022-08-26T00:48:15.012Z,990.23
2022-08-26T00:49:15.101Z,990.26
2022-08-26T00:50:15.010Z,990.24
2022-08-26T00:51:14.912Z,990.18
2022-08-26T00:52:15.312Z,990.25
2022-08-26T00:53:14.970Z,990.18
2022-08-26T00:54:15.044Z,990.23
2022-08-26T00:55:19.712Z,990.22
2022-08-26T00:56:16.938Z,990.23
2022-08-26T00:57:16.440Z,990.17
2022-08-26T00:58:15.121Z,990.18
2022-08-26T00:59:14.917Z,990.20
2022-08-26T01:00:15.033Z,990.18
2022-08-26T01:01:15.337Z,990.24
2022-08-26T01:02:21.201Z,990.18
2022-08-26T01:03:14.997Z,990.18
2022-08-26T01:04:14.850Z,990.13
2022-08-26T01:11:41.253Z,990.24
2022-08-26T01:12:08.865Z,990.16
2022-08-26T01:13:08.970Z,990.17
2022-08-26T01:14:08.865Z,990.16
2022-08-26T01:15:08.862Z,990.12
2022-08-26T01:16:08.866Z,990.15
2022-08-26T01:17:08.567Z,990.15
2022-08-26T01:18:08.677Z,990.10
2022-08-26T01:19:08.547Z,990.08
2022-08-26T01:20:08.601Z,990.08
2022-08-26T01:21:08.566Z,990.10
2022-08-26T01:22:08.546Z,990.13
2022-08-26T01:23:08.948Z,990.13
2022-08-26T01:24:08.523Z,990.05
2022-08-26T01:25:08.545Z,990.11
2022-08-26T01:26:08.522Z,990.12
2022-08-26T01:27:09.526Z,990.10
2022-08-26T01:28:08.475Z,990.05
2022-08-26T01:29:08.474Z,990.07
2022-08-26T01:30:08.479Z,990.11
2022-08-26T01:31:08.457Z,990.10
2022-08-26T01:32:08.453Z,990.11
2022-08-26T01:33:08.668Z,990.11
2022-08-26T01:34:09.041Z,990.16
2022-08-26T01:35:08.395Z,990.17
2022-08-26T01:36:08.427Z,990.20
2022-08-26T01:37:08.379Z,990.11
2022-08-26T01:38:08.401Z,990.22
2022-08-26T01:39:08.407Z,990.20
2022-08-26T01:40:08.449Z,990.20
2022-08-26T01:41:12.456Z,990.24
2022-08-26T01:42:10.404Z,990.21
2022-08-26T01:43:08.590Z,990.22
2022-08-26T01:44:09.737Z,990.21
2022-08-26T01:45:08.297Z,990.18
2022-08-26T01:46:08.373Z,990.17
2022-08-26T01:47:08.304Z,990.22
2022-08-26T01:48:08.240Z,990.24
2022-08-26T01:49:08.255Z,990.26
2022-08-26T01:50:08.255Z,990.26
2022-08-26T01:51:08.224Z,990.29
2022-08-26T01:52:08.225Z,990.25
2022-08-26T01:53:08.559Z,990.24
2022-08-26T01:54:08.236Z,990.26
2022-08-26T01:55:08.210Z,990.30
2022-08-26T01:56:08.161Z,990.25
2022-08-26T01:57:08.197Z,990.25
2022-08-26T01:58:08.264Z,990.22
2022-08-26T01:59:08.212Z,990.27
2022-08-26T02:00:08.148Z,990.20
2022-08-26T02:01:08.184Z,990.22
2022-08-26T02:02:08.104Z,990.23
2022-08-26T02:03:08.295Z,990.24
2022-08-26T02:04:08.124Z,990.22
2022-08-26T02:05:08.077Z,990.23
2022-08-26T02:06:09.336Z,990.23
2022-08-26T02:07:08.036Z,990.23
2022-08-26T02:08:08.034Z,990.32
2022-08-26T02:09:08.090Z,990.19
2022-08-26T02:10:08.044Z,990.22
2022-08-26T02:11:08.045Z,990.25
2022-08-26T02:12:08.025Z,990.25
2022-08-26T02:13:08.093Z,990.18
2022-08-26T02:14:07.972Z,990.26
2022-08-26T02:15:08.024Z,990.19
2022-08-26T02:16:08.011Z,990.16
2022-08-26T02:17:07.917Z,990.21
2022-08-26T02:18:07.958Z,990.23
2022-08-26T02:19:08.975Z,990.23
2022-08-26T02:20:13.389Z,990.20
2022-08-26T02:21:08.901Z,990.20
2022-08-26T02:22:07.905Z,990.25
2022-08-26T02:23:08.001Z,990.20
2022-08-26T02:24:07.833Z,990.21
2022-08-26T02:25:07.915Z,990.23
2022-08-26T02:26:07.887Z,990.23
2022-08-26T02:27:07.866Z,990.18
2022-08-26T02:28:07.821Z,990.25
2022-08-26T02:29:07.838Z,990.21
2022-08-26T02:30:07.842Z,990.26
2022-08-26T02:31:08.023Z,990.22
2022-08-26T02:32:07.809Z,990.21
2022-08-26T02:33:07.987Z,990.16
2022-08-26T02:34:07.738Z,990.19
2022-08-26T02:35:07.747Z,990.12
2022-08-26T02:36:07.813Z,990.19
2022-08-26T02:37:07.726Z,990.25
2022-08-26T02:38:10.083Z,990.21
2022-08-26T02:39:07.690Z,990.20
2022-08-26T02:40:07.713Z,990.20
2022-08-26T02:41:08.007Z,990.23
2022-08-26T02:42:07.723Z,990.26
2022-08-26T02:43:08.574Z,990.28
2022-08-26T02:44:07.626Z,990.22
2022-08-26T02:45:07.638Z,990.27
2022-08-26T02:46:07.627Z,990.23
2022-08-26T02:47:07.731Z,990.23
2022-08-26T02:48:07.595Z,990.22
2022-08-26T02:49:07.618Z,990.18
2022-08-26T02:50:07.582Z,990.21
2022-08-26T02:51:07.594Z,990.24
2022-08-26T02:52:07.579Z,990.21
2022-08-26T02:53:07.718Z,990.28
2022-08-26T02:54:07.544Z,990.26
2022-08-26T02:55:07.547Z,990.26
2022-08-26T02:56:07.541Z,990.22
2022-08-26T02:57:07.503Z,990.22
2022-08-26T02:58:07.485Z,990.20
2022-08-26T02:59:07.507Z,990.19
2022-08-26T03:00:53.014Z,990.23
2022-08-26T03:01:08.813Z,990.15
2022-08-26T03:02:07.744Z,990.17
2022-08-26T03:03:07.798Z,990.23
2022-08-26T03:04:07.707Z,990.17
2022-08-26T03:05:07.805Z,990.19
2022-08-26T03:06:07.519Z,990.22
2022-08-26T03:07:07.731Z,990.17
2022-08-26T03:08:07.765Z,990.18
2022-08-26T03:09:07.657Z,990.22
2022-08-26T03:10:08.429Z,990.17
2022-08-26T03:11:07.586Z,990.19
2022-08-26T03:12:07.760Z,990.11
2022-08-26T03:13:07.895Z,990.15
2022-08-26T03:14:07.552Z,990.15
2022-08-26T03:15:17.437Z,990.10
2022-08-26T03:16:08.699Z,990.09
2022-08-26T03:17:07.886Z,990.10
2022-08-26T03:18:07.584Z,990.08
2022-08-26T03:19:07.560Z,990.05
2022-08-26T03:20:07.564Z,990.10
2022-08-26T03:21:07.621Z,990.11
2022-08-26T03:22:07.592Z,990.11
2022-08-26T03:23:07.850Z,990.10
2022-08-26T03:24:07.356Z,990.09
2022-08-26T03:25:07.471Z,990.09
2022-08-26T03:26:07.700Z,990.09
2022-08-26T03:27:07.656Z,990.13
2022-08-26T03:28:07.723Z,990.08
2022-08-26T03:29:07.433Z,990.08
2022-08-26T03:30:07.708Z,990.06
2022-08-26T03:31:08.288Z,990.08
2022-08-26T03:32:07.932Z,990.06
2022-08-26T03:33:07.948Z,990.09
2022-08-26T03:34:07.292Z,990.05
2022-08-26T03:35:07.448Z,990.07
2022-08-26T03:53:39.489Z,990.08
2022-08-26T04:15:35.894Z,990.12
2022-08-26T04:28:23.559Z,989.97
2022-08-26T04:53:11.442Z,990.01
2022-08-26T05:05:31.633Z,990.04
